Latest Weather Observations for Dubbo

IDN60801

Issued at 10:35 am EDT Thursday 23 October 2014 (issued every 30 minutes, with the page automatically refreshed every 10 minutes)

About weather observations | Map of weather stations | Latest weather observations for NSW | Other Formats
Station Details ID: 065070 Name: DUBBO AIRPORT AWS Lat: -32.22 Lon: 148.58 Height: 284.0 m
Data from the previous 72 hours. | See also: Recent months at Dubbo
Date/Time
EDT
Temp
°C
App
Temp
°C
Dew
Point
Rel
Hum
%
Delta-T
°C
Wind Press
QNH
hPa
Press
MSL
hPa
Rain
since 9 am
mm
Dir
 
Spd
km/h
Gust
km/h
Spd
kts
Gust
kts
23/10:30am 27.2 23.3 10.8 36 9.4 W 22 26 12 14 1019.5 1019.0 0.0
23/10:22am 27.4 25.6 13.4 42 8.3 W 15 20 8 11 1019.5 1019.0 0.0
23/10:00am 22.4 18.3 12.6 54 5.6 W 26 35 14 19 1019.7 1019.1 0.0
23/09:30am 20.0 19.0 13.5 66 3.8 E 11 19 6 10 1020.0 1019.4 0.0
23/09:00am 21.9 21.1 11.6 52 5.8 SSW 7 17 4 9 1020.5 1019.9 0.0
23/08:30am 20.2 18.1 12.4 61 4.4 S 15 22 8 12 1020.9 1020.3 0.0
23/08:00am 19.3 16.8 12.3 64 3.9 SSE 17 20 9 11 1020.2 1019.6 0.0
23/07:30am 18.4 17.1 12.6 69 3.3 SSE 11 15 6 8 1019.8 1019.2 0.0
23/07:00am 15.2 13.0 12.0 81 1.8 SSE 15 15 8 8 1019.2 1018.7 0.0
23/06:30am 13.1 11.3 10.8 86 1.2 ESE 11 13 6 7 1018.7 1018.2 0.0
23/06:00am 13.9 12.4 10.7 81 1.7 ESE 9 13 5 7 1018.7 1018.2 0.0
23/05:30am 14.8 13.4 10.8 77 2.1 E 9 11 5 6 1018.6 1018.0 0.0
23/05:00am 14.2 13.2 10.2 77 2.1 ENE 6 7 3 4 1018.4 1017.8 0.0
23/04:30am 15.1 13.6 10.7 75 2.4 ENE 9 11 5 6 1018.2 1017.6 0.0
23/04:00am 15.0 13.6 11.0 77 2.2 E 9 11 5 6 1018.3 1017.7 0.0
23/03:30am 15.2 14.2 11.0 76 2.3 ENE 7 9 4 5 1018.5 1017.9 0.0
23/03:00am 16.4 15.6 11.6 73 2.6 NNE 7 9 4 5 1018.6 1018.0 0.0
23/02:30am 17.2 16.4 11.7 70 3.0 NE 7 9 4 5 1018.6 1018.0 0.0
23/02:00am 17.4 15.8 11.7 69 3.1 ENE 11 13 6 7 1018.5 1017.9 0.0
23/01:30am 17.4 15.8 11.4 68 3.3 E 11 13 6 7 1018.8 1018.3 0.0
23/01:00am 18.3 17.5 11.6 65 3.7 NE 7 9 4 5 1019.1 1018.6 0.0
23/12:30am 19.9 18.7 11.7 59 4.6 N 9 11 5 6 1019.3 1018.8 0.0
23/12:00am 21.7 22.1 11.4 52 5.8 CALM 0 4 0 2 1019.7 1019.1 0.0
 
Date/Time
EDT
Temp
°C
App
Temp
°C
Dew
Point
Rel
Hum
%
Delta-T
°C
Wind Press
QNH
hPa
Press
MSL
hPa
Rain
since 9 am
mm
Dir
 
Spd
km/h
Gust
km/h
Spd
kts
Gust
kts
22/11:30pm 23.4 21.3 11.1 46 6.9 W 13 17 7 9 1019.8 1019.2 0.0
22/11:03pm 23.5 20.7 11.5 47 6.8 W 17 26 9 14 1020.0 1019.4 0.0
22/11:00pm 22.7 20.0 11.7 49 6.2 W 17 28 9 15 1020.0 1019.4 0.0
22/10:42pm 21.3 21.0 11.6 54 5.5 ENE 4 6 2 3 1019.4 1018.9 0.0
22/10:30pm 21.5 20.6 11.2 52 5.8 ENE 7 9 4 5 1019.2 1018.7 0.0
22/10:00pm 22.0 21.2 11.1 50 6.1 NE 6 9 3 5 1019.0 1018.5 0.0
22/09:30pm 21.8 20.4 10.9 50 6.1 NE 9 9 5 5 1018.9 1018.4 0.0
22/09:00pm 22.0 20.9 10.8 49 6.2 ENE 7 9 4 5 1019.0 1018.5 0.0
22/08:30pm 21.9 22.4 11.6 52 5.8 CALM 0 6 0 3 1018.8 1018.3 0.0
22/08:00pm 22.8 21.5 9.9 44 7.1 NE 7 7 4 4 1018.3 1017.7 0.0
22/07:30pm 24.3 23.1 9.5 39 8.2 NNE 6 9 3 5 1018.1 1017.5 0.0
22/07:00pm 27.7 26.6 10.0 33 10.0 NNW 6 9 3 5 1018.0 1017.4 0.0
22/06:30pm 28.9 27.3 10.1 31 10.7 N 9 15 5 8 1018.1 1017.5 0.0
22/06:00pm 29.3 27.1 9.4 29 11.2 NW 11 22 6 12 1018.1 1017.5 0.0
22/05:30pm 30.0 27.7 10.5 30 11.2 NNW 13 20 7 11 1018.3 1017.7 0.0
22/05:00pm 29.9 27.5 9.9 29 11.4 WNW 13 24 7 13 1018.6 1018.0 0.0
22/04:30pm 30.5 28.4 11.0 30 11.4 NW 13 26 7 14 1019.0 1018.5 0.0
22/04:00pm 29.9 27.4 10.9 31 11.0 NW 15 22 8 12 1019.3 1018.8 0.0
22/03:30pm 29.9 27.1 11.4 32 10.8 NW 17 24 9 13 1019.9 1019.3 0.0
22/03:00pm 28.8 24.9 10.9 33 10.3 NNW 22 32 12 17 1020.3 1019.7 0.0
22/02:30pm 29.0 26.9 11.1 33 10.4 N 13 24 7 13 1020.7 1020.1 0.0
22/02:00pm 28.1 26.4 11.2 35 9.7 WNW 11 22 6 12 1021.4 1020.8 0.0
22/01:30pm 26.6 24.6 10.3 36 9.2 NE 11 22 6 12 1022.0 1021.5 0.0
22/01:00pm 26.9 25.3 11.4 38 8.9 N 11 19 6 10 1022.5 1022.0 0.0
22/12:30pm 25.4 22.2 10.1 38 8.6 N 17 24 9 13 1023.2 1022.7 0.0
22/12:00pm 24.7 22.4 10.6 41 7.9 N 13 22 7 12 1024.0 1023.4 0.0
22/11:30am 23.6 21.2 9.9 42 7.6 NE 13 20 7 11 1024.5 1023.9 0.0
22/11:00am 21.8 19.2 9.3 45 6.7 NNE 13 17 7 9 1025.1 1024.6 0.0
22/10:30am 20.4 16.3 8.7 47 6.2 E 20 26 11 14 1025.3 1024.8 0.0
22/10:00am 20.1 15.5 9.7 51 5.6 E 24 30 13 16 1025.6 1025.1 0.0
22/09:30am 18.2 13.7 8.5 53 5.1 E 22 32 12 17 1025.8 1025.3 0.0
22/09:00am 16.8 11.4 8.2 57 4.4 E 26 33 14 18 1025.9 1025.4 0.0
22/08:30am 15.4 9.6 7.9 61 3.8 E 28 39 15 21 1026.0 1025.5 0.0
22/08:00am 13.9 7.6 7.4 65 3.2 E 30 43 16 23 1025.8 1025.3 0.0
22/07:30am 13.0 7.8 7.2 68 2.9 E 24 32 13 17 1026.0 1025.5 0.0
22/07:00am 12.1 7.8 7.0 71 2.5 E 19 28 10 15 1026.2 1025.7 0.0
22/06:30am 11.4 6.4 6.5 72 2.3 E 22 33 12 18 1025.9 1025.4 0.0
22/06:00am 11.7 6.3 6.4 70 2.5 E 24 35 13 19 1025.3 1024.8 0.0
22/05:30am 11.8 6.4 6.3 69 2.6 ESE 24 35 13 19 1024.9 1024.4 0.0
22/05:00am 11.7 6.3 6.4 70 2.5 E 24 32 13 17 1024.9 1024.4 0.0
22/04:30am 12.2 6.1 6.7 69 2.7 E 28 37 15 20 1024.9 1024.4 0.0
22/04:00am 12.1 7.2 6.8 70 2.6 E 22 35 12 19 1025.0 1024.5 0.0
22/03:30am 12.4 7.5 7.1 70 2.6 E 22 33 12 18 1025.1 1024.6 0.0
22/03:00am 12.9 7.0 7.4 69 2.7 E 28 37 15 20 1025.4 1024.9 0.0
22/02:30am 13.0 7.5 7.5 69 2.7 E 26 41 14 22 1025.5 1025.0 0.0
22/02:00am 13.4 7.6 7.8 69 2.8 E 28 39 15 21 1025.6 1025.1 0.0
22/01:30am 13.6 7.8 8.0 69 2.8 E 28 39 15 21 1025.9 1025.4 0.0
22/01:14am 13.8 8.0 8.0 68 2.9 E 28 46 15 25 1026.0 1025.5 0.0
22/01:00am 13.8 8.4 8.0 68 2.9 E 26 43 14 23 1026.1 1025.6 0.0
22/12:30am 14.3 7.8 8.0 66 3.2 E 32 44 17 24 1026.4 1025.9 0.0
22/12:06am 14.3 8.1 8.0 66 3.2 E 30 48 16 26 1026.7 1026.2 0.0
22/12:00am 14.4 7.7 8.1 66 3.2 E 33 50 18 27 1026.7 1026.2 0.0
 
Date/Time
EDT
Temp
°C
App
Temp
°C
Dew
Point
Rel
Hum
%
Delta-T
°C
Wind Press
QNH
hPa
Press
MSL
hPa
Rain
since 9 am
mm
Dir
 
Spd
km/h
Gust
km/h
Spd
kts
Gust
kts
21/11:30pm 14.7 8.2 8.2 65 3.3 E 32 50 17 27 1026.8 1026.3 0.0
21/11:22pm 14.8 7.8 8.3 65 3.3 E 35 54 19 29 1026.7 1026.2 0.0
21/11:00pm 15.1 8.6 8.3 64 3.5 E 32 44 17 24 1026.6 1026.1 0.0
21/10:30pm 15.6 9.0 8.4 62 3.7 E 33 44 18 24 1026.7 1026.2 0.0
21/10:03pm 16.1 9.7 8.6 61 3.9 E 32 50 17 27 1026.6 1026.1 0.0
21/10:00pm 16.2 9.6 8.7 61 3.9 E 33 50 18 27 1026.6 1026.1 0.0
21/09:54pm 16.3 10.0 8.8 61 3.9 E 32 50 17 27 1026.5 1026.0 0.0
21/09:30pm 16.8 10.5 8.8 59 4.2 E 32 44 17 24 1026.3 1025.8 0.0
21/09:00pm 17.7 11.4 8.8 56 4.6 E 32 48 17 26 1026.0 1025.5 0.0
21/08:30pm 19.1 13.9 9.0 52 5.4 E 26 37 14 20 1025.6 1025.1 0.0
21/08:00pm 20.3 14.7 8.9 48 6.1 E 28 35 15 19 1025.2 1024.7 0.0
21/07:30pm 21.3 16.2 9.2 46 6.5 E 26 35 14 19 1024.9 1024.4 0.0
21/07:00pm 22.6 17.4 9.0 42 7.3 E 26 37 14 20 1024.5 1023.9 0.0
21/06:30pm 23.8 18.6 9.0 39 8.1 ESE 26 35 14 19 1024.3 1023.7 0.0
21/06:00pm 25.0 19.9 9.3 37 8.6 ESE 26 33 14 18 1024.1 1023.5 0.0
21/05:30pm 26.1 21.4 9.4 35 9.3 ESE 24 32 13 17 1024.0 1023.4 0.0
21/05:00pm 26.7 23.4 9.5 34 9.6 ENE 17 22 9 12 1024.0 1023.4 0.0
21/04:30pm 26.9 23.4 10.2 35 9.4 E 19 30 10 16 1024.1 1023.5 0.0
21/04:00pm 26.6 22.1 9.9 35 9.3 E 24 32 13 17 1024.3 1023.7 0.0
21/03:30pm 26.6 23.4 9.9 35 9.4 E 17 28 9 15 1024.5 1023.9 0.0
21/03:00pm 26.1 22.4 9.4 35 9.2 ESE 19 28 10 15 1025.1 1024.6 0.0
21/02:30pm 26.9 22.9 10.6 36 9.3 ESE 22 32 12 17 1025.5 1025.0 0.0
21/02:00pm 25.9 21.9 10.5 38 8.7 E 22 37 12 20 1026.0 1025.5 0.0
21/01:30pm 26.0 22.0 10.6 38 8.7 E 22 33 12 18 1026.5 1026.0 0.0
21/01:00pm 24.4 20.2 9.9 40 8.0 E 22 30 12 16 1027.2 1026.6 0.0
21/12:30pm 24.9 21.1 11.1 42 7.9 E 22 35 12 19 1027.6 1027.0 0.0
21/12:00pm 24.1 19.3 10.4 42 7.6 E 26 35 14 19 1028.0 1027.5 0.0
21/11:30am 22.8 17.5 9.9 44 7.1 ENE 28 41 15 22 1028.2 1027.7 0.0
21/11:00am 21.6 16.3 9.8 47 6.4 E 28 39 15 21 1028.6 1028.1 0.0
21/10:30am 21.2 15.2 10.1 49 6.1 E 32 44 17 24 1028.8 1028.3 0.0
21/10:00am 20.1 14.0 9.7 51 5.6 E 32 44 17 24 1029.0 1028.5 0.0
21/09:30am 19.3 12.9 9.5 53 5.3 E 33 46 18 25 1029.0 1028.5 0.0
21/09:00am 18.0 11.8 9.4 57 4.5 E 32 43 17 23 1028.9 1028.4 0.0
21/08:30am 17.0 10.7 9.7 62 3.9 E 33 48 18 26 1028.8 1028.3 0.0
21/08:14am 16.4 9.7 9.6 64 3.6 E 35 56 19 30 1028.5 1028.0 0.0
21/08:00am 16.1 9.5 10.0 67 3.2 E 35 50 19 27 1028.4 1027.9 0.0
21/07:30am 14.9 8.7 9.9 72 2.6 E 33 52 18 28 1028.1 1027.6 0.0
21/07:29am 15.0 8.8 10.2 73 2.5 E 33 52 18 28 1028.1 1027.6 0.0
21/07:00am 14.3 8.6 9.9 75 2.3 E 30 46 16 25 1027.8 1027.2 0.0
21/06:30am 13.8 8.5 10.0 78 2.0 E 28 41 15 22 1027.5 1026.9 0.0
21/06:00am 13.5 9.7 9.9 79 1.9 E 20 28 11 15 1027.4 1026.8 0.0
21/05:30am 13.8 8.9 9.8 77 2.1 E 26 39 14 21 1026.8 1026.3 0.0
21/05:00am 13.9 8.6 9.7 76 2.2 E 28 37 15 20 1026.4 1025.9 0.0
21/04:30am 14.1 9.2 9.9 76 2.2 E 26 39 14 21 1026.2 1025.7 0.0
21/04:00am 14.3 9.4 10.1 76 2.2 E 26 41 14 22 1026.1 1025.6 0.0
21/03:33am 14.6 9.0 10.2 75 2.3 E 30 50 16 27 1026.1 1025.6 0.0
21/03:30am 14.3 9.1 10.1 76 2.2 E 28 39 15 21 1026.2 1025.7 0.0
21/03:00am 14.7 8.5 10.1 74 2.4 E 33 44 18 24 1026.3 1025.8 0.0
21/02:30am 14.9 9.8 10.5 75 2.3 E 28 41 15 22 1026.3 1025.8 0.0
21/02:00am 14.9 10.2 10.5 75 2.3 E 26 35 14 19 1026.3 1025.8 0.0
21/01:53am 15.0 9.9 10.6 75 2.4 E 28 46 15 25 1026.4 1025.9 0.0
21/01:30am 15.3 10.2 10.7 74 2.5 E 28 43 15 23 1026.4 1025.9 0.0
21/01:24am 15.3 9.8 10.5 73 2.6 E 30 48 16 26 1026.4 1025.9 0.0
21/01:00am 15.7 10.3 10.9 73 2.6 E 30 43 16 23 1026.5 1026.0 0.0
21/12:30am 16.2 10.8 10.9 71 2.9 E 30 41 16 22 1026.5 1026.0 0.0
21/12:00am 16.5 11.9 11.0 70 3.0 E 26 35 14 19 1026.5 1026.0 0.0
 
Date/Time
EDT
Temp
°C
App
Temp
°C
Dew
Point
Rel
Hum
%
Delta-T
°C
Wind Press
QNH
hPa
Press
MSL
hPa
Rain
since 9 am
mm
Dir
 
Spd
km/h
Gust
km/h
Spd
kts
Gust
kts
20/11:30pm 17.0 11.0 10.8 67 3.4 E 33 50 18 27 1026.4 1025.9 0.0
20/11:01pm 17.2 11.3 10.6 65 3.6 E 32 50 17 27 1026.2 1025.7 0.0
20/11:00pm 17.2 11.1 10.6 65 3.6 E 33 50 18 27 1026.3 1025.8 0.0
20/10:48pm 17.5 11.5 10.9 65 3.6 E 33 52 18 28 1026.1 1025.6 0.0
20/10:30pm 17.6 11.1 10.5 63 3.8 E 35 52 19 28 1025.8 1025.3 0.0
20/10:10pm 17.9 12.8 10.5 62 4.0 E 28 46 15 25 1025.7 1025.2 0.0
20/10:00pm 17.9 13.1 10.3 61 4.1 E 26 37 14 20 1025.9 1025.4 0.0
20/09:30pm 18.2 14.1 10.1 59 4.4 ESE 22 43 12 23 1025.7 1025.2 0.0
20/09:00pm 18.6 12.6 10.2 58 4.5 E 32 46 17 25 1024.9 1024.4 0.0
20/08:30pm 19.1 13.6 10.4 57 4.7 E 30 41 16 22 1024.6 1024.0 0.0
20/08:14pm 19.7 14.5 10.4 55 5.1 E 28 46 15 25 1024.4 1023.8 0.0
20/08:00pm 20.2 15.5 10.6 54 5.3 E 26 43 14 23 1024.3 1023.7 0.0
20/07:30pm 21.4 15.4 10.9 51 5.9 E 33 50 18 27 1023.5 1022.9 0.0
20/07:00pm 23.2 17.2 10.9 46 6.9 E 33 48 18 26 1022.7 1022.2 0.0
20/06:30pm 25.1 18.8 10.9 41 8.1 E 35 48 19 26 1022.3 1021.8 0.0
20/06:00pm 26.9 20.8 10.6 36 9.3 E 33 48 18 26 1021.9 1021.4 0.0
20/05:30pm 28.4 22.5 11.0 34 10.0 E 33 46 18 25 1021.7 1021.1 0.0
20/05:00pm 29.7 23.9 10.8 31 10.9 E 32 43 17 23 1021.5 1020.9 0.0
20/04:30pm 30.1 24.0 10.6 30 11.3 E 33 48 18 26 1021.4 1020.8 0.0
20/04:00pm 32.3 26.7 3.3 16 15.0 SE 22 30 12 16 1021.6 1021.0 0.0
20/03:30pm 32.3 28.0 3.3 16 15.1 ESE 15 22 8 12 1021.9 1021.4 0.0
20/03:00pm 32.2 28.6 3.2 16 15.0 S 11 22 6 12 1022.3 1021.8 0.0
20/02:30pm 31.6 28.1 3.6 17 14.5 S 11 22 6 12 1022.7 1022.2 0.0
20/02:00pm 32.2 29.1 5.7 19 14.2 SE 11 20 6 11 1023.2 1022.7 0.0
20/01:30pm 31.3 27.7 4.9 19 14.0 ENE 13 19 7 10 1023.7 1023.1 0.0
20/01:00pm 31.2 28.5 5.6 20 13.7 E 9 17 5 9 1024.0 1023.4 0.0
20/12:30pm 30.7 28.2 6.6 22 13.1 NW 9 13 5 7 1024.6 1024.0 0.0
20/12:00pm 29.6 27.0 6.3 23 12.5 N 9 17 5 9 1025.0 1024.5 0.0
20/11:30am 29.3 26.4 6.7 24 12.2 NW 11 17 6 9 1025.3 1024.8 0.0
20/11:00am 27.5 24.6 6.3 26 11.2 NW 11 17 6 9 1025.5 1025.0 0.0

Other Formats:

Comma delimited format used in spreadsheet applications
http://www.bom.gov.au/fwo/IDN60801/IDN60801.95719.axf

JavaScript Object Notation format (JSON) in row-major order
http://www.bom.gov.au/fwo/IDN60801/IDN60801.95719.json